CheckWX is a tool to help pilots better visualize weather data.  It is not intended as a substitute for an official pre-flight weather briefing.

07:20:15 UTC

KYNG TAF
Youngstown-Warren Regional Airport
Youngstown/Warren, Ohio, USA
KYNG 041122Z 0412/0512 00000KT P6SM SCT250 FM042100 31004KT P6SM FEW250 FM050000 00000KT P6SM BKN060 PROB30 0504/0508 4SM -SHRA BR OVC025 FM050800 00000KT P6SM BKN040 FM050900 00000KT P6SM OVC025

Apr-4@
12:00 UTC

Apr-4 @ 12:00 UTC

Apr-4@
21:00 UTC

Apr-4 @ 21:00 UTC

TAF KYNG 041122Z 0412/0512 00000KT P6SM SCT250

Expired

Cloud Levels
  • Scattered at 25,000' AGL

Apr-4@
21:00 UTC

Apr-4 @ 21:00 UTC

Apr-5@
00:00 UTC

Apr-5 @ 00:00 UTC

FM042100 31004KT P6SM FEW250

Expired

Wind
  • 310° at 4 KTS
Cloud Levels
  • Few at 25,000' AGL

Apr-5@
00:00 UTC

Apr-5 @ 00:00 UTC

Apr-5@
08:00 UTC

Apr-5 @ 08:00 UTC

FM050000 00000KT P6SM BKN060

From

From Standard forecast or significant change

Cloud Levels
  • Broken at 6,000' AGL

Apr-5@
04:00 UTC

Apr-5 @ 04:00 UTC

Apr-5@
08:00 UTC

Apr-5 @ 08:00 UTC

PROB30 0504/0508 4SM -SHRA BR OVC025

Probable - 30% Likelihood

Probable - 30% Likelihood during this time.

Conditions
Light Showers, Rain, Mist
Cloud Levels
  • Overcast at 2,500' AGL

Apr-5@
08:00 UTC

Apr-5 @ 08:00 UTC

Apr-5@
09:00 UTC

Apr-5 @ 09:00 UTC

FM050800 00000KT P6SM BKN040

From

From Standard forecast or significant change

Cloud Levels
  • Broken at 4,000' AGL

Apr-5@
09:00 UTC

Apr-5 @ 09:00 UTC

Apr-5@
12:00 UTC

Apr-5 @ 12:00 UTC

FM050900 00000KT P6SM OVC025

From

From Standard forecast or significant change

Cloud Levels
  • Overcast at 2,500' AGL